Time;durP1;ratioP1;P1;durP2;ratioP2;P2;SDS_P1;SDS_P2;PMS_P1;PMS_P2;Temp;Humidity;BMP_temperature;BMP_pressure;BME280_temperature;BME280_humidity;BME280_pressure;Samples;Min_cycle;Max_cycle;Signal;HPM_P1;HPM_P2
2022/09/23 00:00:44;;;;;;;9.73;5.68;;;;;;;11.05;66.42;100264.97;5069697;27;20055;-89
2022/09/23 00:03:11;;;;;;;15.63;6.43;;;;;;;11.15;66.04;100270.38;5108119;27;20057;-89
2022/09/23 00:05:38;;;;;;;12.07;5.45;;;;;;;11.07;66.29;100263.88;5079907;27;20047;-90
2022/09/23 00:08:06;;;;;;;10.80;5.32;;;;;;;11.04;66.28;100263.28;5069125;27;20073;-89
2022/09/23 00:10:36;;;;;;;12.23;5.25;;;;;;;10.98;66.39;100261.97;5078801;27;20100;-91
2022/09/23 00:13:04;;;;;;;14.52;5.53;;;;;;;11.09;65.82;100261.06;5075265;27;20436;-89
2022/09/23 00:15:32;;;;;;;11.23;5.20;;;;;;;11.12;65.50;100263.50;5074298;27;20047;-90
2022/09/23 00:17:59;;;;;;;9.27;5.85;;;;;;;11.04;66.44;100256.16;5068475;27;20043;-91
2022/09/23 00:20:27;;;;;;;17.48;6.40;;;;;;;11.08;66.17;100262.06;5069483;27;20051;-89
2022/09/23 00:22:54;;;;;;;12.85;5.43;;;;;;;11.04;66.58;100258.81;5088699;27;20043;-89
2022/09/23 00:25:20;;;;;;;8.35;5.50;;;;;;;11.02;66.39;100254.63;5091559;27;20059;-89
2022/09/23 00:27:47;;;;;;;12.32;5.90;;;;;;;11.00;66.25;100261.88;5078661;27;20047;-91
2022/09/23 00:30:14;;;;;;;8.52;5.47;;;;;;;11.00;65.91;100257.38;5081473;27;20043;-89
2022/09/23 00:32:41;;;;;;;13.00;5.43;;;;;;;10.97;66.25;100247.03;5084779;27;20036;-90
2022/09/23 00:35:07;;;;;;;17.90;5.82;;;;;;;10.86;66.58;100250.56;5073676;27;20050;-89
2022/09/23 00:37:34;;;;;;;9.27;6.03;;;;;;;10.82;66.43;100253.59;5080841;27;20066;-90
2022/09/23 00:40:02;;;;;;;7.88;5.43;;;;;;;10.76;66.70;100252.31;5085608;27;20050;-90
2022/09/23 00:42:28;;;;;;;11.80;5.85;;;;;;;10.87;66.33;100248.75;5107895;27;20464;-90
2022/09/23 00:44:57;;;;;;;8.10;5.15;;;;;;;10.83;66.60;100242.00;5086095;27;20039;-89
2022/09/23 00:47:31;;;;;;;9.52;5.65;;;;;;;10.84;66.52;100251.69;5065397;27;20120;-90
2022/09/23 00:50:32;;;;;;;11.52;5.57;;;;;;;10.51;66.92;100245.50;5059459;27;20428;-91
2022/09/23 00:53:00;;;;;;;10.73;5.18;;;;;;;10.60;66.90;100243.91;5064466;27;20041;-91
2022/09/23 00:55:31;;;;;;;11.68;5.55;;;;;;;10.67;66.93;100242.44;5086655;27;20487;-89
2022/09/23 00:58:00;;;;;;;13.15;5.85;;;;;;;10.68;66.85;100244.09;5069550;27;20043;-90
2022/09/23 01:00:27;;;;;;;8.60;5.25;;;;;;;10.70;66.69;100238.69;5093374;27;20134;-91
2022/09/23 01:02:54;;;;;;;9.43;5.05;;;;;;;10.67;66.44;100238.94;5093473;27;20047;-89
2022/09/23 01:05:21;;;;;;;9.23;4.80;;;;;;;10.67;66.52;100234.47;5085516;27;20407;-91
2022/09/23 01:07:48;;;;;;;8.18;5.10;;;;;;;10.62;66.73;100237.50;5087677;27;20047;-90
2022/09/23 01:10:15;;;;;;;8.70;5.03;;;;;;;10.55;66.76;100233.66;5092697;27;20462;-89
2022/09/23 01:12:51;;;;;;;13.07;5.13;;;;;;;10.58;66.62;100236.06;5083268;27;20058;-90
2022/09/23 01:15:24;;;;;;;8.40;4.88;;;;;;;10.56;66.34;100227.38;5076725;27;20049;-91
2022/09/23 01:18:08;;;;;;;8.93;5.13;;;;;;;10.46;66.31;100226.47;5094629;27;20040;-91
2022/09/23 01:20:59;;;;;;;13.13;5.43;;;;;;;10.38;66.54;100231.53;5103087;27;20050;-90
2022/09/23 01:23:32;;;;;;;11.23;5.30;;;;;;;10.50;66.59;100229.69;5104884;27;20034;-90
2022/09/23 01:26:38;;;;;;;8.32;4.78;;;;;;;10.24;67.16;100222.00;5077783;27;20074;-90
2022/09/23 01:29:34;;;;;;;8.45;5.38;;;;;;;10.20;67.08;100224.06;5095334;27;20134;-89
2022/09/23 01:32:18;;;;;;;12.02;5.30;;;;;;;10.28;66.60;100222.63;5096883;27;20104;-89
2022/09/23 01:35:13;;;;;;;9.25;5.28;;;;;;;10.16;66.86;100230.59;5073958;27;20047;-90
2022/09/23 01:37:50;;;;;;;6.97;4.47;;;;;;;10.25;66.61;100228.16;5077244;28;20082;-91
2022/09/23 01:40:18;;;;;;;10.48;4.82;;;;;;;10.29;66.79;100230.47;5079777;27;20054;-90
2022/09/23 01:43:01;;;;;;;9.02;4.78;;;;;;;10.25;66.64;100230.81;5060067;27;20051;-90
2022/09/23 01:45:47;;;;;;;8.02;4.88;;;;;;;10.09;66.57;100225.91;5098761;27;20069;-90
2022/09/23 01:48:21;;;;;;;8.70;4.95;;;;;;;10.16;66.45;100221.78;5084952;27;20100;-91
2022/09/23 01:50:55;;;;;;;7.80;5.00;;;;;;;10.04;67.02;100226.25;5103708;27;20051;-90
2022/09/23 01:53:36;;;;;;;7.57;5.18;;;;;;;10.03;66.99;100215.78;5067818;27;20092;-91
2022/09/23 01:56:18;;;;;;;9.23;5.43;;;;;;;10.00;67.33;100216.88;5087097;27;20067;-92
2022/09/23 01:59:15;;;;;;;14.43;6.43;;;;;;;9.96;67.47;100210.94;5073591;27;20043;-91
2022/09/23 02:02:06;;;;;;;8.82;5.45;;;;;;;9.98;67.28;100209.03;5073015;27;20047;-91
2022/09/23 02:04:52;;;;;;;8.57;5.68;;;;;;;10.06;66.96;100208.41;5080307;27;20055;-91
2022/09/23 02:07:48;;;;;;;11.52;5.47;;;;;;;9.90;67.13;100200.00;5085070;27;20051;-91
2022/09/23 02:10:29;;;;;;;8.77;5.20;;;;;;;10.05;67.27;100203.22;5087918;27;20101;-91
2022/09/23 02:12:59;;;;;;;10.98;4.80;;;;;;;10.13;66.94;100201.66;5094401;27;20214;-90
2022/09/23 02:15:34;;;;;;;10.43;4.85;;;;;;;10.08;66.97;100201.19;5066628;27;20070;-91
2022/09/23 02:18:07;;;;;;;7.68;4.57;;;;;;;10.01;66.84;100202.63;5092084;27;20062;-91
2022/09/23 02:20:38;;;;;;;9.55;5.00;;;;;;;10.12;66.21;100191.16;5085093;27;20119;-90
2022/09/23 02:23:08;;;;;;;7.93;5.40;;;;;;;10.12;66.19;100204.41;5088959;27;20502;-91
2022/09/23 02:26:01;;;;;;;8.65;5.68;;;;;;;9.93;66.70;100203.25;5109616;27;20053;-91
2022/09/23 02:28:38;;;;;;;12.10;5.20;;;;;;;9.96;66.59;100200.34;5095183;27;20099;-91
2022/09/23 02:31:12;;;;;;;7.97;5.18;;;;;;;9.96;66.56;100210.13;5103701;27;20070;-91
2022/09/23 02:33:45;;;;;;;9.77;4.70;;;;;;;9.89;66.90;100204.44;5071393;27;20089;-92
2022/09/23 02:36:29;;;;;;;7.97;5.05;;;;;;;9.86;66.96;100198.56;5084987;27;20059;-90
2022/09/23 02:38:58;;;;;;;10.43;5.28;;;;;;;9.90;67.16;100197.34;5097115;28;20039;-89
2022/09/23 02:41:31;;;;;;;10.70;5.55;;;;;;;9.81;67.34;100198.91;5066291;27;20151;-92
2022/09/23 02:44:00;;;;;;;;;;;;;;;9.45;68.02;100197.34;5067891;27;20036;-90
2022/09/23 02:46:28;;;;;;;9.27;4.80;;;;;;;9.75;67.71;100196.75;5090040;27;19919;-91
2022/09/23 02:49:00;;;;;;;9.75;6.22;;;;;;;9.73;67.42;100194.22;5089984;27;20079;-90
2022/09/23 02:56:37;;;;;;;8.37;4.47;;;;;;;9.48;68.27;100187.34;5133644;27;20030;-88
2022/09/23 02:59:05;;;;;;;7.85;4.70;;;;;;;9.82;67.19;100178.53;5109700;27;20051;-89
2022/09/23 03:02:03;;;;;;;8.45;4.97;;;;;;;9.59;67.93;100188.31;5094437;27;20047;-88
2022/09/23 03:04:49;;;;;;;9.15;5.22;;;;;;;9.69;67.64;100183.97;5105830;27;20126;-88
2022/09/23 03:07:41;;;;;;;7.90;5.10;;;;;;;9.62;67.84;100173.03;5080018;27;20125;-88
2022/09/23 03:10:20;;;;;;;10.35;4.88;;;;;;;9.65;67.18;100178.06;5089430;27;20134;-88
2022/09/23 03:12:58;;;;;;;9.52;4.85;;;;;;;9.70;67.14;100183.88;5090088;27;20437;-87
2022/09/23 03:15:45;;;;;;;9.13;5.47;;;;;;;9.54;67.22;100180.72;5080740;27;20097;-88
2022/09/23 03:18:17;;;;;;;13.90;4.95;;;;;;;9.69;67.07;100187.50;5120871;27;20062;-87
2022/09/23 03:20:49;;;;;;;8.68;5.47;;;;;;;9.60;66.96;100177.59;5101656;27;20494;-88
2022/09/23 03:23:20;;;;;;;9.52;4.75;;;;;;;9.59;66.93;100175.88;5067190;27;20039;-89
2022/09/23 03:25:48;;;;;;;9.88;5.53;;;;;;;9.58;66.89;100171.56;5118939;27;20106;-88
2022/09/23 03:28:16;;;;;;;9.60;5.25;;;;;;;9.62;66.85;100177.50;5077196;27;20062;-87
2022/09/23 03:30:43;;;;;;;7.97;4.53;;;;;;;9.61;67.21;100170.47;5068041;27;20146;-89
2022/09/23 03:33:11;;;;;;;13.27;6.35;;;;;;;9.60;66.98;100174.94;5086312;27;20075;-88
2022/09/23 03:38:36;;;;;;;8.43;5.00;;;;;;;9.52;66.82;100169.41;5097508;27;20046;-88
2022/09/23 03:41:04;;;;;;;12.18;5.20;;;;;;;9.51;66.97;100162.41;5115860;27;20043;-87
2022/09/23 03:43:31;;;;;;;10.25;5.40;;;;;;;9.51;67.22;100171.19;5074691;27;20093;-87
2022/09/23 03:46:05;;;;;;;8.85;5.65;;;;;;;9.47;67.20;100163.63;5067274;27;20047;-89
2022/09/23 03:48:32;;;;;;;10.13;5.85;;;;;;;9.51;67.23;100165.91;5100060;27;20126;-89
2022/09/23 03:51:21;;;;;;;11.10;5.50;;;;;;;9.33;67.20;100154.94;5122750;27;20139;-89
2022/09/23 03:53:49;;;;;;;7.45;5.47;;;;;;;9.49;67.30;100161.69;5101298;27;20079;-89
2022/09/23 03:56:16;;;;;;;10.65;6.32;;;;;;;9.40;67.13;100155.31;5082879;27;20446;-88
2022/09/23 03:58:45;;;;;;;9.95;5.25;;;;;;;9.44;67.09;100156.75;5083998;27;20043;-88
2022/09/23 04:01:13;;;;;;;11.82;5.28;;;;;;;9.45;67.10;100154.94;5097228;27;20076;-88
2022/09/23 04:03:40;;;;;;;13.43;5.38;;;;;;;9.39;66.76;100150.09;5062585;27;20120;-89
2022/09/23 04:06:07;;;;;;;11.48;5.53;;;;;;;9.43;67.03;100144.44;5074341;27;20705;-88
2022/09/23 04:08:34;;;;;;;9.13;4.95;;;;;;;9.32;67.34;100147.13;5080083;27;20100;-90
2022/09/23 04:11:01;;;;;;;10.88;6.03;;;;;;;9.34;67.10;100139.91;5065209;27;20047;-89
2022/09/23 04:13:28;;;;;;;7.93;5.05;;;;;;;9.39;67.09;100142.16;5089183;27;20130;-88
2022/09/23 04:15:55;;;;;;;7.88;5.25;;;;;;;9.40;67.20;100141.22;5096959;27;20047;-88
2022/09/23 04:18:22;;;;;;;9.80;5.35;;;;;;;9.37;67.34;100142.31;5097130;27;20042;-89
2022/09/23 04:20:48;;;;;;;8.20;5.32;;;;;;;9.34;67.12;100143.38;5077336;27;20047;-88
2022/09/23 04:23:15;;;;;;;9.48;5.85;;;;;;;9.29;67.39;100145.56;5073899;27;20506;-89
2022/09/23 04:25:46;;;;;;;8.85;5.40;;;;;;;9.17;67.35;100143.00;5093629;27;20053;-89
2022/09/23 04:28:13;;;;;;;9.05;5.50;;;;;;;9.23;67.31;100138.06;5091017;27;20047;-89
2022/09/23 04:30:44;;;;;;;13.00;6.00;;;;;;;9.17;67.46;100140.38;5086632;27;20043;-87
2022/09/23 04:33:12;;;;;;;9.10;5.72;;;;;;;9.25;67.51;100138.78;5096059;27;20129;-86
2022/09/23 04:35:39;;;;;;;9.55;5.88;;;;;;;9.33;67.16;100138.19;5085787;27;20485;-86
2022/09/23 04:38:06;;;;;;;11.30;6.53;;;;;;;9.29;67.50;100139.41;5111407;27;20523;-84
2022/09/23 04:40:34;;;;;;;12.70;6.35;;;;;;;9.25;67.60;100136.13;5104828;27;20051;-84
2022/09/23 04:43:01;;;;;;;9.98;5.95;;;;;;;9.27;67.35;100134.22;5096200;27;20375;-84
2022/09/23 04:45:29;;;;;;;11.52;5.75;;;;;;;9.18;67.73;100134.94;5117228;27;20055;-84
2022/09/23 04:47:57;;;;;;;10.20;5.28;;;;;;;9.24;67.49;100137.13;5103648;27;20044;-85
2022/09/23 04:50:24;;;;;;;9.55;5.90;;;;;;;9.20;67.61;100134.81;5094603;27;20650;-84
2022/09/23 04:52:52;;;;;;;9.85;6.10;;;;;;;9.09;67.68;100135.66;5091150;27;20142;-80
2022/09/23 04:55:19;;;;;;;10.13;5.78;;;;;;;9.19;67.33;100133.16;5098395;27;20134;-80
2022/09/23 04:57:45;;;;;;;9.32;6.03;;;;;;;9.18;67.32;100131.44;5094165;27;20134;-80
2022/09/23 05:00:14;;;;;;;14.98;6.65;;;;;;;9.14;67.72;100136.16;5099762;27;20138;-80
2022/09/23 05:02:45;;;;;;;11.02;6.07;;;;;;;9.12;67.93;100149.50;5122249;27;20130;-80
2022/09/23 05:05:12;;;;;;;10.35;6.30;;;;;;;9.27;67.56;100141.34;5069886;27;20197;-80
2022/09/23 05:07:39;;;;;;;12.73;6.15;;;;;;;9.27;67.89;100152.78;5101845;27;20043;-80
2022/09/23 05:10:07;;;;;;;9.23;6.22;;;;;;;9.31;67.57;100148.06;5089885;27;20050;-80
2022/09/23 05:12:33;;;;;;;15.00;7.18;;;;;;;9.40;67.24;100157.13;5095836;27;20140;-80
2022/09/23 05:15:00;;;;;;;15.25;7.05;;;;;;;9.38;67.47;100156.38;5102211;27;20062;-80
2022/09/23 05:17:30;;;;;;;10.43;6.45;;;;;;;9.28;67.69;100154.44;5109526;27;20047;-80
2022/09/23 05:19:57;;;;;;;11.95;6.95;;;;;;;9.21;67.99;100155.91;5073704;27;20065;-80
2022/09/23 05:22:28;;;;;;;10.10;6.43;;;;;;;9.08;68.61;100160.44;5110325;27;20462;-80
2022/09/23 05:24:55;;;;;;;11.20;6.28;;;;;;;9.19;68.39;100162.28;5081781;27;20083;-80
2022/09/23 05:27:21;;;;;;;13.57;6.65;;;;;;;9.13;68.31;100153.00;5092741;27;20454;-80
2022/09/23 05:29:48;;;;;;;15.40;8.43;;;;;;;9.30;67.82;100157.00;5077939;27;20054;-80
2022/09/23 05:32:15;;;;;;;10.57;7.18;;;;;;;9.23;68.08;100146.00;5099016;27;20044;-80
2022/09/23 05:34:42;;;;;;;13.77;7.63;;;;;;;9.29;68.04;100155.31;5077627;27;20488;-80
2022/09/23 05:37:09;;;;;;;11.57;6.90;;;;;;;9.37;67.89;100157.38;5096081;27;20048;-80
2022/09/23 05:39:35;;;;;;;12.98;7.32;;;;;;;9.39;67.80;100153.63;5094199;27;20051;-80
2022/09/23 05:42:03;;;;;;;15.77;7.38;;;;;;;9.37;67.64;100152.06;5065910;27;20047;-80
2022/09/23 05:44:29;;;;;;;12.82;6.88;;;;;;;9.46;67.22;100157.47;5115221;27;20135;-80
2022/09/23 05:46:56;;;;;;;14.73;7.60;;;;;;;9.48;66.97;100152.88;5102063;27;20092;-80
2022/09/23 05:49:23;;;;;;;14.35;8.18;;;;;;;9.51;66.93;100167.72;5106975;27;20142;-80
2022/09/23 05:52:08;;;;;;;17.02;8.48;;;;;;;9.52;67.12;100159.66;5088086;27;20070;-80
2022/09/23 05:54:35;;;;;;;13.75;8.05;;;;;;;9.56;66.71;100166.38;5110316;27;20443;-80
2022/09/23 05:57:02;;;;;;;15.77;7.93;;;;;;;9.59;66.59;100159.97;5090734;27;20551;-79
2022/09/23 05:59:30;;;;;;;16.10;8.50;;;;;;;9.61;66.00;100162.53;5075622;27;20055;-80
2022/09/23 06:01:57;;;;;;;17.10;8.30;;;;;;;9.54;66.20;100163.03;5088965;27;20054;-80
2022/09/23 06:04:24;;;;;;;16.27;7.97;;;;;;;9.53;65.75;100161.31;5076861;27;20039;-80
2022/09/23 06:06:51;;;;;;;19.20;7.97;;;;;;;9.54;66.04;100157.72;5115233;27;20068;-80
2022/09/23 06:09:18;;;;;;;20.98;8.82;;;;;;;9.49;66.16;100151.94;5114593;27;20201;-80
2022/09/23 06:11:45;;;;;;;15.02;8.20;;;;;;;9.54;66.37;100156.84;5087333;27;20064;-80
2022/09/23 06:14:13;;;;;;;14.35;8.73;;;;;;;9.51;66.59;100151.81;5088474;27;20095;-80
2022/09/23 06:16:40;;;;;;;16.73;8.85;;;;;;;9.52;66.58;100149.03;5067713;27;20424;-80
2022/09/23 06:19:06;;;;;;;19.20;9.23;;;;;;;9.56;66.88;100152.28;5104781;27;20107;-80
2022/09/23 06:21:35;;;;;;;13.98;8.82;;;;;;;9.60;66.88;100150.25;5092495;27;20077;-80
2022/09/23 06:24:03;;;;;;;34.80;10.52;;;;;;;9.62;67.40;100150.97;5119355;27;20031;-80
2022/09/23 06:26:32;;;;;;;16.83;9.77;;;;;;;9.68;67.28;100148.66;5099143;27;20043;-80
2022/09/23 06:29:01;;;;;;;21.55;9.77;;;;;;;9.69;67.51;100149.50;5088833;27;20047;-80
2022/09/23 06:31:28;;;;;;;19.60;10.50;;;;;;;9.71;67.78;100144.91;5096635;27;20047;-80
2022/09/23 06:33:55;;;;;;;20.40;10.20;;;;;;;9.82;67.72;100142.28;5100341;27;20039;-80
2022/09/23 06:36:36;;;;;;;18.52;11.10;;;;;;;9.86;67.63;100142.84;5093318;27;20047;-80
2022/09/23 06:39:09;;;;;;;20.70;10.45;;;;;;;9.88;67.67;100139.13;5097595;27;20084;-80
2022/09/23 06:41:37;;;;;;;19.42;10.52;;;;;;;9.96;67.91;100143.78;5096351;27;20082;-80
2022/09/23 06:44:10;;;;;;;23.95;10.75;;;;;;;9.91;67.88;100136.22;5090450;27;20550;-80
2022/09/23 06:46:37;;;;;;;19.92;10.10;;;;;;;10.02;67.78;100139.78;5098424;27;20119;-80
2022/09/23 06:49:04;;;;;;;20.52;10.60;;;;;;;10.06;67.88;100143.91;5079125;27;20053;-80
2022/09/23 06:51:30;;;;;;;22.85;10.50;;;;;;;10.11;67.79;100141.72;5085848;27;20082;-80
2022/09/23 06:53:57;;;;;;;20.48;11.15;;;;;;;10.14;67.78;100139.63;5089995;27;20104;-80
2022/09/23 06:56:24;;;;;;;19.75;10.38;;;;;;;10.16;67.96;100145.66;5084434;27;20111;-80
2022/09/23 06:58:51;;;;;;;17.83;9.95;;;;;;;10.25;67.87;100136.09;5079415;27;20555;-80
2022/09/23 07:01:18;;;;;;;17.90;10.80;;;;;;;10.35;67.80;100144.19;5104024;27;20562;-80
2022/09/23 07:03:47;;;;;;;25.95;12.50;;;;;;;10.38;68.12;100142.13;5088643;27;20051;-80
2022/09/23 07:06:13;;;;;;;26.98;11.85;;;;;;;10.38;68.54;100144.78;5118628;27;20031;-80
2022/09/23 07:08:45;;;;;;;22.60;11.88;;;;;;;10.37;69.20;100139.59;5087142;27;20051;-80
2022/09/23 07:11:13;;;;;;;19.67;11.60;;;;;;;10.53;68.39;100141.81;5099051;27;20049;-80
2022/09/23 07:13:41;;;;;;;27.92;11.55;;;;;;;10.59;68.23;100136.84;5086636;27;20055;-80
2022/09/23 07:16:08;;;;;;;19.65;11.00;;;;;;;10.69;67.90;100139.56;5106015;27;20123;-80
2022/09/23 07:18:36;;;;;;;24.60;10.77;;;;;;;10.79;67.92;100134.34;5106922;27;20624;-80
2022/09/23 07:21:13;;;;;;;20.55;10.55;;;;;;;10.84;68.12;100134.78;5122449;27;20031;-80
2022/09/23 07:23:45;;;;;;;24.27;11.07;;;;;;;10.85;67.85;100125.84;5096790;27;20073;-80
2022/09/23 07:26:13;;;;;;;18.30;10.07;;;;;;;10.92;67.57;100131.47;5075286;27;20475;-79
2022/09/23 07:28:39;;;;;;;21.17;10.88;;;;;;;10.99;67.41;100128.16;5111666;27;20130;-79
2022/09/23 07:31:14;;;;;;;18.88;10.60;;;;;;;11.06;67.43;100133.78;5092756;27;20054;-80
2022/09/23 07:33:44;;;;;;;17.77;9.82;;;;;;;11.11;66.89;100126.25;5076134;27;20054;-80
2022/09/23 07:36:17;;;;;;;15.15;9.35;;;;;;;11.13;67.09;100119.00;5090679;27;20101;-79
2022/09/23 07:38:44;;;;;;;21.57;10.20;;;;;;;11.17;66.81;100125.75;5099530;27;20050;-79
2022/09/23 07:41:13;;;;;;;22.73;9.88;;;;;;;11.21;66.46;100129.81;5095042;27;20452;-80
2022/09/23 07:43:40;;;;;;;19.05;8.80;;;;;;;11.24;66.60;100124.22;5118514;27;20071;-80
2022/09/23 07:46:10;;;;;;;14.32;8.95;;;;;;;11.29;66.17;100129.13;5103205;27;20061;-80
2022/09/23 07:48:37;;;;;;;14.60;8.27;;;;;;;11.29;65.68;100124.66;5101010;27;20479;-79
2022/09/23 07:51:10;;;;;;;13.25;8.68;;;;;;;11.32;65.60;100128.84;5099745;27;20063;-79
2022/09/23 07:53:37;;;;;;;15.45;8.35;;;;;;;11.36;65.25;100134.78;5097505;27;20048;-79
2022/09/23 07:56:05;;;;;;;17.58;9.07;;;;;;;11.39;64.94;100134.50;5084299;27;20114;-79
2022/09/23 07:58:33;;;;;;;19.15;9.25;;;;;;;11.42;65.10;100131.56;5135976;27;20424;-79
2022/09/23 08:01:01;;;;;;;15.10;8.75;;;;;;;11.44;65.00;100129.63;5087133;27;20700;-79
2022/09/23 08:03:28;;;;;;;15.90;8.55;;;;;;;11.49;65.04;100135.38;5087692;27;20066;-79
2022/09/23 08:06:03;;;;;;;14.45;8.93;;;;;;;11.45;65.09;100134.81;5121667;27;20043;-85
2022/09/23 08:08:30;;;;;;;13.88;7.50;;;;;;;11.50;65.03;100135.25;5105797;27;20047;-85
2022/09/23 08:11:04;;;;;;;17.15;8.82;;;;;;;11.49;65.00;100125.56;5117473;27;20048;-86
2022/09/23 08:13:32;;;;;;;16.40;8.25;;;;;;;11.59;65.07;100130.09;5125991;27;20040;-87
2022/09/23 08:15:58;;;;;;;14.60;9.25;;;;;;;11.62;65.15;100124.50;5133895;27;20036;-87
2022/09/23 08:18:26;;;;;;;15.15;8.73;;;;;;;11.66;65.08;100126.75;5133260;27;20414;-87
2022/09/23 08:21:02;;;;;;;16.13;8.27;;;;;;;11.70;65.41;100124.66;5095117;27;20620;-85
2022/09/23 08:23:32;;;;;;;12.48;7.82;;;;;;;11.71;65.07;100126.38;5095059;27;20059;-86
2022/09/23 08:26:03;;;;;;;15.93;8.90;;;;;;;11.74;65.17;100129.59;5094401;27;20043;-87
2022/09/23 08:28:32;;;;;;;17.33;9.05;;;;;;;11.75;64.94;100122.44;5105890;27;20138;-87
2022/09/23 08:30:58;;;;;;;17.50;9.10;;;;;;;11.77;65.00;100122.31;5103662;27;20134;-86
2022/09/23 08:33:26;;;;;;;12.57;7.97;;;;;;;11.79;64.98;100123.03;5096707;27;20073;-87
2022/09/23 08:35:58;;;;;;;13.07;7.65;;;;;;;11.78;64.95;100119.53;5079774;27;20055;-87
2022/09/23 08:38:25;;;;;;;12.67;7.53;;;;;;;11.86;65.56;100116.19;5096854;27;20134;-87
2022/09/23 08:41:00;;;;;;;12.70;7.40;;;;;;;11.88;65.11;100115.09;5085227;27;21032;-87
2022/09/23 08:43:32;;;;;;;16.52;7.68;;;;;;;11.90;65.44;100118.44;5084798;27;20055;-86
2022/09/23 08:46:02;;;;;;;12.88;7.05;;;;;;;11.97;65.00;100116.06;5100457;28;20063;-87
2022/09/23 08:48:39;;;;;;;10.50;6.75;;;;;;;11.94;64.89;100114.53;5118948;27;20548;-86
2022/09/23 08:51:11;;;;;;;12.95;6.18;;;;;;;12.01;65.22;100117.50;5074884;27;20050;-87
2022/09/23 08:53:41;;;;;;;7.45;5.13;;;;;;;12.04;65.39;100106.56;5091128;28;20057;-88
2022/09/23 08:56:15;;;;;;;8.52;5.60;;;;;;;12.07;64.57;100111.59;5105582;27;20104;-87
2022/09/23 08:58:49;;;;;;;9.38;5.82;;;;;;;12.12;65.16;100122.69;5078896;27;20114;-87
2022/09/23 09:01:30;;;;;;;8.90;5.13;;;;;;;12.12;64.32;100117.34;5117012;27;20495;-86
2022/09/23 09:04:02;;;;;;;7.40;4.93;;;;;;;12.21;64.26;100122.81;5078562;27;20443;-87
2022/09/23 09:06:56;;;;;;;6.72;4.97;;;;;;;12.16;64.06;100118.78;5085236;27;20036;-86
2022/09/23 09:10:13;;;;;;;6.50;4.85;;;;;;;12.25;63.41;100118.91;5115385;27;20043;-86
2022/09/23 09:13:03;;;;;;;7.40;4.40;;;;;;;12.24;63.88;100114.59;5105428;27;20043;-87
2022/09/23 09:15:30;;;;;;;6.85;4.10;;;;;;;12.36;63.72;100116.09;5078965;27;20057;-86
2022/09/23 09:17:58;;;;;;;7.00;3.90;;;;;;;12.41;63.65;100119.19;5087294;27;20035;-87
2022/09/23 09:20:46;;;;;;;5.63;4.22;;;;;;;12.32;63.33;100102.22;5076232;27;20149;-85
2022/09/23 09:23:38;;;;;;;8.07;4.72;;;;;;;12.38;63.25;100104.31;5112405;27;20046;-86
2022/09/23 09:26:08;;;;;;;7.50;4.10;;;;;;;12.47;63.53;100100.00;5079472;27;20047;-86
2022/09/23 09:28:41;;;;;;;6.72;3.92;;;;;;;12.47;63.38;100097.31;5081694;27;20137;-85
2022/09/23 09:31:14;;;;;;;;;;;;;;;12.38;64.19;100095.50;5097967;27;20121;-87
2022/09/23 09:33:56;;;;;;;6.27;3.73;;;;;;;12.52;63.62;100091.59;5117961;27;20018;-86
2022/09/23 09:36:37;;;;;;;6.03;3.67;;;;;;;12.55;63.39;100093.97;5106593;27;20046;-85
2022/09/23 09:39:05;;;;;;;4.85;3.45;;;;;;;12.66;63.32;100088.47;5084342;27;20039;-86
2022/09/23 09:41:32;;;;;;;4.78;3.53;;;;;;;12.69;63.26;100079.34;5108199;27;20520;-87
2022/09/23 09:44:02;;;;;;;6.18;3.63;;;;;;;12.74;63.00;100077.91;5081469;27;20410;-85
2022/09/23 09:46:37;;;;;;;3.83;3.22;;;;;;;12.76;62.90;100075.13;5076926;27;20101;-86
2022/09/23 09:49:11;;;;;;;7.80;4.25;;;;;;;12.79;62.78;100075.66;5094896;27;20035;-86
2022/09/23 09:51:41;;;;;;;3.88;3.33;;;;;;;12.82;62.82;100064.75;5079280;27;20059;-84
2022/09/23 09:54:17;;;;;;;4.15;3.17;;;;;;;12.83;62.99;100065.56;5083957;27;20975;-86
2022/09/23 09:56:44;;;;;;;6.25;3.45;;;;;;;12.91;63.09;100063.00;5086883;27;20059;-85
2022/09/23 09:59:16;;;;;;;7.40;3.50;;;;;;;12.90;63.18;100056.03;5108033;27;20399;-86
2022/09/23 10:01:43;;;;;;;8.18;3.63;;;;;;;12.96;63.32;100055.44;5096656;27;20047;-85
2022/09/23 10:04:22;;;;;;;6.60;4.25;;;;;;;12.94;63.11;100052.06;5102259;27;20074;-86
2022/09/23 10:07:13;;;;;;;5.18;3.33;;;;;;;12.94;63.45;100046.72;5128584;27;20059;-86
2022/09/23 10:09:47;;;;;;;7.75;4.03;;;;;;;13.00;63.38;100050.63;5102359;27;20047;-86
2022/09/23 10:12:20;;;;;;;4.25;3.38;;;;;;;13.06;63.42;100052.72;5132276;27;20127;-85
2022/09/23 10:14:51;;;;;;;4.85;3.75;;;;;;;13.10;63.42;100045.25;5100005;27;20122;-85
2022/09/23 10:17:23;;;;;;;6.10;4.40;;;;;;;13.10;63.42;100054.13;5089445;27;20522;-85
2022/09/23 10:19:59;;;;;;;5.35;3.28;;;;;;;13.12;63.57;100044.13;5102318;27;20050;-86
2022/09/23 10:22:35;;;;;;;7.95;4.00;;;;;;;13.10;63.67;100038.13;5087424;27;20031;-86
2022/09/23 10:25:06;;;;;;;7.72;4.25;;;;;;;13.17;63.68;100033.88;5099207;27;20046;-86
2022/09/23 10:27:34;;;;;;;5.13;3.88;;;;;;;13.23;63.46;100043.13;5101908;27;20066;-86
2022/09/23 10:30:20;;;;;;;6.10;3.60;;;;;;;13.18;63.49;100045.41;5097346;27;20545;-86
2022/09/23 10:32:47;;;;;;;4.82;3.38;;;;;;;13.29;63.67;100042.56;5115855;27;20386;-86
2022/09/23 10:35:17;;;;;;;4.85;3.83;;;;;;;13.29;63.63;100039.88;5107106;27;20039;-85
2022/09/23 10:37:55;;;;;;;5.68;4.47;;;;;;;13.31;63.50;100039.75;5107834;28;20047;-86
2022/09/23 10:46:37;;;;;;;7.32;4.18;;;;;;;13.40;63.54;100028.16;5115292;27;20081;-85
2022/09/23 10:49:38;;;;;;;6.65;3.72;;;;;;;13.38;63.76;100025.66;5077929;27;20039;-85
2022/09/23 10:52:21;;;;;;;7.45;3.78;;;;;;;13.48;63.57;100012.25;5113194;27;20126;-86
2022/09/23 10:55:18;;;;;;;5.15;4.07;;;;;;;13.45;63.38;100021.38;5102893;27;20099;-86
2022/09/23 10:57:45;;;;;;;9.23;4.13;;;;;;;13.55;63.77;100012.50;5059423;28;20134;-87
2022/09/23 11:00:39;;;;;;;5.90;3.90;;;;;;;13.54;63.92;100018.84;5112070;27;20491;-86
2022/09/23 11:03:18;;;;;;;5.63;3.75;;;;;;;13.56;63.52;100012.34;5126048;27;20125;-85
2022/09/23 11:05:51;;;;;;;6.40;4.40;;;;;;;13.61;63.78;100012.75;5104210;27;20039;-85
2022/09/23 11:09:01;;;;;;;10.05;4.82;;;;;;;13.56;63.62;100001.69;5102567;27;20369;-87
2022/09/23 11:11:55;;;;;;;6.68;4.10;;;;;;;13.63;64.21;100005.41;5106217;27;20046;-87
2022/09/23 11:14:40;;;;;;;8.60;5.10;;;;;;;13.67;63.44;99996.13;5136424;27;20965;-86
2022/09/23 11:17:21;;;;;;;8.13;4.97;;;;;;;13.71;63.81;99990.47;5091187;27;20075;-86
2022/09/23 11:20:01;;;;;;;6.57;4.72;;;;;;;13.76;63.67;99994.34;5115661;27;20473;-86
2022/09/23 11:22:56;;;;;;;5.70;4.22;;;;;;;13.80;63.55;99985.06;5111096;27;20031;-85
2022/09/23 11:25:55;;;;;;;8.45;4.63;;;;;;;13.78;63.87;99981.69;5102599;27;20076;-85
2022/09/23 11:28:46;;;;;;;5.88;4.57;;;;;;;13.84;64.00;99973.09;5103876;27;20543;-85
2022/09/23 11:31:34;;;;;;;5.78;4.68;;;;;;;13.89;63.75;99970.81;5141236;27;20035;-85
2022/09/23 11:34:10;;;;;;;7.47;5.53;;;;;;;13.97;63.73;99961.16;5110786;28;20478;-84
2022/09/23 11:36:40;;;;;;;11.82;6.15;;;;;;;14.05;63.71;99964.75;5111226;27;20491;-86
2022/09/23 11:39:17;;;;;;;9.90;5.40;;;;;;;14.03;63.56;99957.91;5107459;27;20122;-86
2022/09/23 11:41:44;;;;;;;9.45;5.07;;;;;;;14.14;63.72;99960.31;5085216;27;20546;-86
2022/09/23 11:44:15;;;;;;;8.95;6.10;;;;;;;14.15;63.64;99959.31;5111040;27;20110;-86
2022/09/23 11:46:45;;;;;;;9.90;6.45;;;;;;;14.22;63.08;99948.84;5118316;27;20047;-86
2022/09/23 11:49:15;;;;;;;12.07;7.38;;;;;;;14.27;63.16;99949.22;5094813;27;20067;-85
2022/09/23 11:52:04;;;;;;;11.80;6.15;;;;;;;14.29;63.21;99945.38;5111228;27;20510;-85
2022/09/23 11:54:54;;;;;;;11.13;7.63;;;;;;;14.26;63.13;99948.38;5107318;27;20039;-85
2022/09/23 11:57:39;;;;;;;10.52;7.32;;;;;;;14.31;62.75;99954.09;5096697;27;20050;-86
2022/09/23 12:00:18;;;;;;;9.10;6.05;;;;;;;14.41;62.86;99951.31;5127548;27;20053;-86
2022/09/23 12:03:08;;;;;;;8.73;5.72;;;;;;;14.35;63.00;99941.28;5076345;27;20046;-85
2022/09/23 12:05:41;;;;;;;5.63;4.72;;;;;;;14.43;62.50;99948.50;5104580;27;20450;-86